createdAt,value
2023-05-23T00:01:02.244Z,38.15
2023-05-23T00:03:31.174Z,32.30
2023-05-23T00:05:59.023Z,35.75
2023-05-23T00:08:25.964Z,32.20
2023-05-23T00:10:52.403Z,34.47
2023-05-23T00:13:18.936Z,36.10
2023-05-23T00:15:45.372Z,32.78
2023-05-23T00:18:11.891Z,35.22
2023-05-23T00:20:40.847Z,32.28
2023-05-23T00:23:08.792Z,32.50
2023-05-23T00:25:35.959Z,33.40
2023-05-23T00:28:03.965Z,33.92
2023-05-23T00:30:32.001Z,35.80
2023-05-23T00:32:58.974Z,32.90
2023-05-23T00:35:25.773Z,37.22
2023-05-23T00:37:52.379Z,34.70
2023-05-23T00:40:19.147Z,33.53
2023-05-23T00:42:46.468Z,32.85
2023-05-23T00:45:12.924Z,37.17
2023-05-23T00:47:42.937Z,32.28
2023-05-23T00:50:12.338Z,33.83
2023-05-23T00:52:39.434Z,31.52
2023-05-23T00:55:06.420Z,36.92
2023-05-23T00:57:34.820Z,33.53
2023-05-23T01:00:02.273Z,33.60
2023-05-23T01:02:32.299Z,30.50
2023-05-23T01:04:59.842Z,34.10
2023-05-23T01:07:26.737Z,35.58
2023-05-23T01:09:53.238Z,33.65
2023-05-23T01:12:34.212Z,44.33
2023-05-23T01:17:50.715Z,36.88
2023-05-23T01:20:24.140Z,37.30
2023-05-23T01:23:02.490Z,39.92
2023-05-23T01:25:38.620Z,33.80
2023-05-23T01:28:12.512Z,36.65
2023-05-23T01:30:41.853Z,38.17
2023-05-23T01:33:09.653Z,37.38
2023-05-23T01:35:36.917Z,37.22
2023-05-23T01:38:03.438Z,34.55
2023-05-23T01:40:30.011Z,37.25
2023-05-23T01:43:00.095Z,36.28
2023-05-23T01:45:28.141Z,41.03
2023-05-23T01:47:57.063Z,39.92
2023-05-23T01:50:24.688Z,37.95
2023-05-23T01:52:52.403Z,41.67
2023-05-23T01:55:22.797Z,35.53
2023-05-23T01:57:55.415Z,40.53
2023-05-23T02:00:22.179Z,47.70
2023-05-23T02:02:48.812Z,39.35
2023-05-23T02:05:15.485Z,36.17
2023-05-23T02:07:41.954Z,37.10
2023-05-23T02:10:09.710Z,36.88
2023-05-23T02:12:36.521Z,35.78
2023-05-23T02:15:03.176Z,34.10
2023-05-23T02:17:30.681Z,52.38
2023-05-23T02:19:57.340Z,33.15
2023-05-23T02:22:26.867Z,40.05
2023-05-23T02:24:53.424Z,37.38
2023-05-23T02:27:20.007Z,45.35
2023-05-23T02:29:46.633Z,38.65
2023-05-23T02:32:13.199Z,41.85
2023-05-23T02:34:40.305Z,35.20
2023-05-23T02:37:07.057Z,37.17
2023-05-23T02:39:36.109Z,37.90
2023-05-23T02:42:02.875Z,45.17
2023-05-23T02:44:29.344Z,40.25
2023-05-23T02:46:55.898Z,40.10
2023-05-23T02:49:22.529Z,42.05
2023-05-23T02:51:49.076Z,41.33
2023-05-23T02:54:16.014Z,38.10
2023-05-23T02:56:42.470Z,33.47
2023-05-23T02:59:08.931Z,38.60
2023-05-23T03:01:35.606Z,40.33
2023-05-23T03:04:02.137Z,37.40
2023-05-23T03:06:28.811Z,35.28
2023-05-23T03:08:55.543Z,34.45
2023-05-23T03:11:22.696Z,38.28
2023-05-23T03:13:49.409Z,39.10
2023-05-23T03:16:15.903Z,37.30
2023-05-23T03:18:42.359Z,33.30
2023-05-23T03:21:09.625Z,36.72
2023-05-23T03:23:36.626Z,38.30
2023-05-23T03:26:03.920Z,36.55
2023-05-23T03:28:33.572Z,40.08
2023-05-23T03:31:00.002Z,36.88
2023-05-23T03:33:26.610Z,35.70
2023-05-23T03:35:53.100Z,34.70
2023-05-23T03:38:19.629Z,35.85
2023-05-23T03:40:46.261Z,37.88
2023-05-23T03:43:12.772Z,34.90
2023-05-23T03:45:39.517Z,34.95
2023-05-23T03:48:06.243Z,34.08
2023-05-23T03:50:32.802Z,36.13
2023-05-23T03:52:59.253Z,35.60
2023-05-23T03:55:25.742Z,39.80
2023-05-23T03:57:52.279Z,35.65
2023-05-23T04:00:19.466Z,33.38
2023-05-23T04:02:46.627Z,35.85
2023-05-23T04:05:13.473Z,39.60
2023-05-23T04:07:41.431Z,38.20
2023-05-23T04:10:08.791Z,34.50
2023-05-23T04:12:35.571Z,34.50
2023-05-23T04:15:02.493Z,33.97
2023-05-23T04:17:30.641Z,40.53
2023-05-23T04:19:58.005Z,31.42
2023-05-23T04:22:24.489Z,35.20
2023-05-23T04:24:51.064Z,36.20
2023-05-23T04:27:17.605Z,34.35
2023-05-23T04:29:44.266Z,32.97
2023-05-23T04:32:11.383Z,36.72
2023-05-23T04:34:38.014Z,33.00
2023-05-23T04:37:04.728Z,31.15
2023-05-23T04:39:31.196Z,36.42
2023-05-23T04:41:57.855Z,38.65
2023-05-23T04:44:24.375Z,36.78
2023-05-23T04:46:50.833Z,34.72
2023-05-23T04:49:17.297Z,29.27
2023-05-23T04:51:44.052Z,29.27
2023-05-23T04:54:10.573Z,36.38
2023-05-23T04:56:37.207Z,29.88
2023-05-23T04:59:03.663Z,26.35
2023-05-23T05:01:31.302Z,26.25
2023-05-23T05:03:57.965Z,23.75
2023-05-23T05:06:24.831Z,24.10
2023-05-23T05:08:51.318Z,26.38
2023-05-23T05:11:17.825Z,25.63
2023-05-23T05:13:44.288Z,27.40
2023-05-23T05:16:13.829Z,25.15
2023-05-23T05:18:40.368Z,25.38
2023-05-23T05:21:08.136Z,21.92
2023-05-23T05:23:36.206Z,22.55
2023-05-23T05:26:03.271Z,25.95
2023-05-23T05:28:29.759Z,25.67
2023-05-23T05:30:56.842Z,23.73
2023-05-23T05:33:28.313Z,24.90
2023-05-23T05:35:54.848Z,27.85
2023-05-23T05:38:21.698Z,26.65
2023-05-23T05:40:48.141Z,26.73
2023-05-23T05:43:15.114Z,29.00
2023-05-23T05:45:41.816Z,23.90
2023-05-23T05:48:08.492Z,29.40
2023-05-23T05:50:35.081Z,24.05
2023-05-23T05:53:01.659Z,25.25
2023-05-23T05:55:28.232Z,27.75
2023-05-23T05:57:54.745Z,26.85
2023-05-23T06:00:22.038Z,24.92
2023-05-23T06:02:48.808Z,26.52
2023-05-23T06:05:16.621Z,24.35
2023-05-23T06:07:44.053Z,26.13
2023-05-23T06:10:14.067Z,28.88
2023-05-23T06:12:40.957Z,25.98
2023-05-23T06:15:09.490Z,18.35
2023-05-23T06:17:36.128Z,24.75
2023-05-23T06:20:04.994Z,21.70
2023-05-23T06:22:31.696Z,24.00
2023-05-23T06:24:58.183Z,21.58
2023-05-23T06:27:25.541Z,26.52
2023-05-23T06:29:52.088Z,24.05
2023-05-23T06:32:25.108Z,27.25
2023-05-23T06:34:51.663Z,24.02
2023-05-23T06:37:18.126Z,25.13
2023-05-23T06:39:44.614Z,24.92
2023-05-23T06:42:11.375Z,27.77
2023-05-23T06:44:37.982Z,22.35
2023-05-23T06:47:04.623Z,23.98
2023-05-23T06:49:31.122Z,27.38
2023-05-23T06:51:57.651Z,48.15
2023-05-23T06:54:24.182Z,27.42
2023-05-23T06:56:50.998Z,37.70
2023-05-23T06:59:17.638Z,31.45
2023-05-23T07:01:44.204Z,27.67
2023-05-23T07:04:12.108Z,24.75
2023-05-23T07:06:39.914Z,29.23
2023-05-23T07:09:06.644Z,28.65
2023-05-23T07:11:33.196Z,26.13
2023-05-23T07:13:59.704Z,25.60
2023-05-23T07:16:26.519Z,29.42
2023-05-23T07:18:53.170Z,29.35
2023-05-23T07:21:19.701Z,31.02
2023-05-23T07:23:46.436Z,27.10
2023-05-23T07:26:13.084Z,29.48
2023-05-23T07:28:39.646Z,29.92
2023-05-23T07:31:15.798Z,35.05
2023-05-23T07:33:42.309Z,28.00
2023-05-23T07:36:11.459Z,28.60
2023-05-23T07:38:37.968Z,31.50
2023-05-23T07:41:11.569Z,31.67
2023-05-23T07:43:39.487Z,28.50
2023-05-23T07:46:06.268Z,27.73
2023-05-23T07:48:33.406Z,26.67
2023-05-23T07:50:59.887Z,30.08
2023-05-23T07:53:26.753Z,29.70
2023-05-23T07:55:53.344Z,30.63
2023-05-23T07:58:19.792Z,28.15
2023-05-23T08:00:46.400Z,26.77
2023-05-23T08:03:13.422Z,28.23
2023-05-23T08:05:40.057Z,26.95
2023-05-23T08:08:06.641Z,25.02
2023-05-23T08:10:33.122Z,22.98
2023-05-23T08:13:00.917Z,26.63
2023-05-23T08:15:28.809Z,38.30
2023-05-23T08:17:57.267Z,28.25
2023-05-23T08:20:30.633Z,30.63
2023-05-23T08:23:03.444Z,27.10
2023-05-23T08:25:30.982Z,28.42
2023-05-23T08:27:58.659Z,25.60
2023-05-23T08:30:25.995Z,30.05
2023-05-23T08:32:53.434Z,28.50
2023-05-23T08:35:21.090Z,26.77
2023-05-23T08:37:48.032Z,25.02
2023-05-23T08:40:22.000Z,24.92
2023-05-23T08:42:49.860Z,23.20
2023-05-23T08:45:17.467Z,24.70
2023-05-23T08:47:45.788Z,22.70
2023-05-23T08:50:14.432Z,21.42
2023-05-23T08:52:58.531Z,20.85
2023-05-23T08:55:27.275Z,22.35
2023-05-23T08:57:55.172Z,22.60
2023-05-23T09:00:23.429Z,24.58
2023-05-23T09:02:50.125Z,20.08
2023-05-23T09:05:16.967Z,18.75
2023-05-23T09:07:47.945Z,25.35
2023-05-23T09:10:20.269Z,21.35
2023-05-23T09:12:47.356Z,23.05
2023-05-23T09:15:13.951Z,24.75
2023-05-23T09:17:40.700Z,23.90
2023-05-23T09:20:15.209Z,19.48
2023-05-23T09:22:47.936Z,18.90
2023-05-23T09:25:15.358Z,25.02
2023-05-23T09:27:43.245Z,19.85
2023-05-23T09:30:13.918Z,22.85
2023-05-23T09:32:40.590Z,19.00
2023-05-23T09:35:07.965Z,24.15
2023-05-23T09:37:35.225Z,25.20
2023-05-23T09:40:06.556Z,22.08
2023-05-23T09:42:34.126Z,20.30
2023-05-23T09:45:03.791Z,20.20
2023-05-23T09:47:31.974Z,22.08
2023-05-23T09:49:58.964Z,17.95
2023-05-23T09:52:26.512Z,21.77
2023-05-23T09:54:54.305Z,16.02
2023-05-23T09:57:23.300Z,17.92
2023-05-23T09:59:57.117Z,21.98
2023-05-23T10:02:55.493Z,17.58
2023-05-23T10:05:38.735Z,18.33
2023-05-23T10:08:12.084Z,20.00
2023-05-23T10:10:58.525Z,19.75
2023-05-23T10:13:27.150Z,20.27
2023-05-23T10:16:00.232Z,19.17
2023-05-23T10:18:31.625Z,18.23
2023-05-23T10:21:06.733Z,18.52
2023-05-23T10:23:34.080Z,15.95
2023-05-23T10:26:01.159Z,16.05
2023-05-23T10:28:28.052Z,15.75
2023-05-23T10:30:55.532Z,18.85
2023-05-23T10:33:23.131Z,13.70
2023-05-23T10:36:19.483Z,16.58
2023-05-23T10:39:09.393Z,17.45
2023-05-23T10:41:48.838Z,14.63
2023-05-23T10:44:28.095Z,15.30
2023-05-23T10:47:01.723Z,19.75
2023-05-23T10:49:51.693Z,16.10
2023-05-23T10:52:18.590Z,18.08
2023-05-23T10:54:48.910Z,15.45
2023-05-23T10:57:26.939Z,15.57
2023-05-23T10:59:57.691Z,13.15
2023-05-23T11:02:29.307Z,14.23
2023-05-23T11:05:22.893Z,17.35
2023-05-23T11:08:29.619Z,21.63
2023-05-23T11:11:08.086Z,23.30
2023-05-23T11:14:02.965Z,19.75
2023-05-23T11:16:43.767Z,19.80
2023-05-23T11:19:19.673Z,18.40
2023-05-23T11:21:54.165Z,18.13
2023-05-23T11:24:21.694Z,17.55
2023-05-23T11:27:00.705Z,17.60
2023-05-23T11:29:35.909Z,20.10
2023-05-23T11:32:16.017Z,19.38
2023-05-23T11:34:47.420Z,19.65
2023-05-23T11:37:14.554Z,13.35
2023-05-23T11:39:42.417Z,19.73
2023-05-23T11:42:09.332Z,20.98
2023-05-23T11:44:35.987Z,18.05
2023-05-23T11:47:05.136Z,18.77
2023-05-23T11:49:43.391Z,18.40
2023-05-23T11:52:10.338Z,19.10
2023-05-23T11:54:40.302Z,17.20
2023-05-23T11:57:07.388Z,17.45
2023-05-23T11:59:36.384Z,17.70
2023-05-23T12:02:06.945Z,17.50
2023-05-23T12:04:35.732Z,15.77
2023-05-23T12:07:06.865Z,18.83
2023-05-23T12:09:42.631Z,17.60
2023-05-23T12:12:11.640Z,17.23
2023-05-23T12:14:44.451Z,21.42
2023-05-23T12:17:14.980Z,18.77
2023-05-23T12:19:46.513Z,17.05
2023-05-23T12:22:16.329Z,12.35
2023-05-23T12:24:55.356Z,17.65
2023-05-23T12:27:35.680Z,14.38
2023-05-23T12:30:18.310Z,15.45
2023-05-23T12:32:51.173Z,14.85
2023-05-23T12:35:17.867Z,15.82
2023-05-23T12:37:46.341Z,10.07
2023-05-23T12:40:20.623Z,12.10
2023-05-23T12:42:55.291Z,15.48
2023-05-23T12:45:48.199Z,11.85
2023-05-23T12:48:15.040Z,7.97
2023-05-23T12:50:41.711Z,7.10
2023-05-23T12:53:08.580Z,8.15
2023-05-23T12:55:40.158Z,11.82
2023-05-23T12:58:10.188Z,9.75
2023-05-23T13:00:39.690Z,8.85
2023-05-23T13:03:12.375Z,11.30
2023-05-23T13:05:39.434Z,11.55
2023-05-23T13:08:12.701Z,14.25
2023-05-23T13:10:45.852Z,17.08
2023-05-23T13:13:12.831Z,16.52
2023-05-23T13:15:39.539Z,12.77
2023-05-23T13:18:06.846Z,14.85
2023-05-23T13:20:40.419Z,10.13
2023-05-23T13:23:15.505Z,13.57
2023-05-23T13:25:42.663Z,10.80
2023-05-23T13:28:10.064Z,10.73
2023-05-23T13:30:36.933Z,12.20
2023-05-23T13:33:03.770Z,10.90
2023-05-23T13:35:30.546Z,11.27
2023-05-23T13:37:57.110Z,15.82
2023-05-23T13:40:23.967Z,11.48
2023-05-23T13:42:52.092Z,10.55
2023-05-23T13:45:20.363Z,10.23
2023-05-23T13:47:47.599Z,11.60
2023-05-23T13:50:14.857Z,14.23
2023-05-23T13:52:45.681Z,10.40
2023-05-23T13:55:14.660Z,10.85
2023-05-23T13:57:41.544Z,8.95
2023-05-23T14:00:09.048Z,10.32
2023-05-23T14:02:36.088Z,13.48
2023-05-23T14:05:03.357Z,15.23
2023-05-23T14:07:36.304Z,9.23
2023-05-23T14:10:05.315Z,10.43
2023-05-23T14:12:34.949Z,9.77
2023-05-23T14:15:01.721Z,8.98
2023-05-23T14:17:28.458Z,20.10
2023-05-23T14:19:55.091Z,13.25
2023-05-23T14:22:22.056Z,8.77
2023-05-23T14:24:51.122Z,9.02
2023-05-23T14:27:19.014Z,13.30
2023-05-23T14:29:46.846Z,9.40
2023-05-23T14:32:13.847Z,13.60
2023-05-23T14:34:40.539Z,10.80
2023-05-23T14:37:07.288Z,8.43
2023-05-23T14:39:44.656Z,8.82
2023-05-23T14:42:11.198Z,11.18
2023-05-23T14:44:37.905Z,7.47
2023-05-23T14:47:04.834Z,8.48
2023-05-23T14:49:31.459Z,8.93
2023-05-23T14:52:01.203Z,7.45
2023-05-23T14:54:30.733Z,7.93
2023-05-23T14:56:57.268Z,12.37
2023-05-23T14:59:24.164Z,8.57
2023-05-23T15:01:51.041Z,12.48
2023-05-23T15:04:17.784Z,7.05
2023-05-23T15:06:49.957Z,8.20
2023-05-23T15:09:18.073Z,11.00
2023-05-23T15:11:46.811Z,11.68
2023-05-23T15:14:13.531Z,9.88
2023-05-23T15:16:40.204Z,9.65
2023-05-23T15:19:07.201Z,9.38
2023-05-23T15:21:34.012Z,13.23
2023-05-23T15:24:01.166Z,9.73
2023-05-23T15:26:28.394Z,11.35
2023-05-23T15:28:55.683Z,10.05
2023-05-23T15:31:22.503Z,13.63
2023-05-23T15:33:49.499Z,10.43
2023-05-23T15:36:16.249Z,10.52
2023-05-23T15:38:43.821Z,11.63
2023-05-23T15:41:11.075Z,11.50
2023-05-23T15:43:37.855Z,14.15
2023-05-23T15:46:05.034Z,11.45
2023-05-23T15:48:31.651Z,11.15
2023-05-23T15:50:58.297Z,12.52
2023-05-23T15:53:24.847Z,17.48
2023-05-23T15:55:51.372Z,13.40
2023-05-23T15:58:17.898Z,12.73
2023-05-23T16:00:44.624Z,11.85
2023-05-23T16:03:11.183Z,13.48
2023-05-23T16:05:37.870Z,13.00
2023-05-23T16:08:04.725Z,16.48
2023-05-23T16:10:31.287Z,11.68
2023-05-23T16:12:57.918Z,11.85
2023-05-23T16:15:24.451Z,10.57
2023-05-23T16:17:51.029Z,12.02
2023-05-23T16:20:17.698Z,10.55
2023-05-23T16:22:45.760Z,16.70
2023-05-23T16:25:12.348Z,10.95
2023-05-23T16:27:40.487Z,12.82
2023-05-23T16:30:07.919Z,11.43
2023-05-23T16:32:34.803Z,15.05
2023-05-23T16:35:01.574Z,12.07
2023-05-23T16:37:28.135Z,10.52
2023-05-23T16:39:54.681Z,13.30
2023-05-23T16:42:21.390Z,10.43
2023-05-23T16:44:48.099Z,10.88
2023-05-23T16:47:14.747Z,10.00
2023-05-23T16:49:41.281Z,10.40
2023-05-23T16:52:07.820Z,11.02
2023-05-23T16:54:34.364Z,10.35
2023-05-23T16:57:05.720Z,10.88
2023-05-23T16:59:32.693Z,9.60
2023-05-23T17:01:59.476Z,8.20
2023-05-23T17:04:26.014Z,16.40
2023-05-23T17:06:52.580Z,10.27
2023-05-23T17:09:21.278Z,8.98
2023-05-23T17:11:48.452Z,11.88
2023-05-23T17:14:15.098Z,10.18
2023-05-23T17:16:41.858Z,10.07
2023-05-23T17:19:08.625Z,9.27
2023-05-23T17:21:35.203Z,14.82
2023-05-23T17:24:02.260Z,11.40
2023-05-23T17:26:28.791Z,13.10
2023-05-23T17:28:55.301Z,9.95
2023-05-23T17:31:21.950Z,11.82
2023-05-23T17:33:48.495Z,10.15
2023-05-23T17:36:15.003Z,12.65
2023-05-23T17:38:41.933Z,9.00
2023-05-23T17:41:08.614Z,11.77
2023-05-23T17:43:35.316Z,11.52
2023-05-23T17:46:02.046Z,12.77
2023-05-23T17:48:45.719Z,8.07
2023-05-23T17:51:14.212Z,9.23
2023-05-23T17:53:41.717Z,13.60
2023-05-23T17:56:09.393Z,9.60
2023-05-23T17:58:37.761Z,10.90
2023-05-23T18:01:05.890Z,17.48
2023-05-23T18:03:32.482Z,14.90
2023-05-23T18:05:59.073Z,18.67
2023-05-23T18:08:25.727Z,18.48
2023-05-23T18:10:52.567Z,20.15
2023-05-23T18:13:19.250Z,18.70
2023-05-23T18:15:45.979Z,19.05
2023-05-23T18:18:12.852Z,19.23
2023-05-23T18:20:39.794Z,19.35
2023-05-23T18:23:06.656Z,23.67
2023-05-23T18:25:33.483Z,22.27
2023-05-23T18:28:01.897Z,24.90
2023-05-23T18:30:29.416Z,22.30
2023-05-23T18:32:56.403Z,22.63
2023-05-23T18:35:23.671Z,22.40
2023-05-23T18:37:50.287Z,23.08
2023-05-23T18:40:17.145Z,21.55
2023-05-23T18:42:43.685Z,22.05
2023-05-23T18:45:10.772Z,23.13
2023-05-23T18:47:37.299Z,22.83
2023-05-23T18:50:03.987Z,25.52
2023-05-23T18:52:33.519Z,19.42
2023-05-23T18:55:00.080Z,22.33
2023-05-23T18:57:26.779Z,21.25
2023-05-23T18:59:53.417Z,29.85
2023-05-23T19:02:20.220Z,26.27
2023-05-23T19:04:46.911Z,19.65
2023-05-23T19:07:13.492Z,21.58
2023-05-23T19:09:40.082Z,25.23
2023-05-23T19:12:06.858Z,20.20
2023-05-23T19:14:33.408Z,28.55
2023-05-23T19:16:59.961Z,23.52
2023-05-23T19:19:29.278Z,20.73
2023-05-23T19:21:57.407Z,25.85
2023-05-23T19:24:23.970Z,21.95
2023-05-23T19:26:50.542Z,20.73
2023-05-23T19:29:17.051Z,21.40
2023-05-23T19:31:43.840Z,22.90
2023-05-23T19:34:10.746Z,14.13
2023-05-23T19:36:37.264Z,26.92
2023-05-23T19:39:04.575Z,18.05
2023-05-23T19:41:32.797Z,16.20
2023-05-23T19:43:59.775Z,18.80
2023-05-23T19:46:29.652Z,14.68
2023-05-23T19:48:57.808Z,15.88
2023-05-23T19:51:27.293Z,14.85
2023-05-23T19:53:56.638Z,14.32
2023-05-23T19:56:23.756Z,14.25
2023-05-23T19:58:50.183Z,12.13
2023-05-23T20:01:16.646Z,17.02
2023-05-23T20:03:43.113Z,15.18
2023-05-23T20:06:09.746Z,13.18
2023-05-23T20:08:36.181Z,13.43
2023-05-23T20:11:02.625Z,12.30
2023-05-23T20:13:29.864Z,16.25
2023-05-23T20:15:56.833Z,13.60
2023-05-23T20:18:23.348Z,14.85
2023-05-23T20:20:50.191Z,14.45
2023-05-23T20:23:16.716Z,15.77
2023-05-23T20:25:43.499Z,13.27
2023-05-23T20:28:10.534Z,13.52
2023-05-23T20:30:37.372Z,12.93
2023-05-23T20:33:04.298Z,13.27
2023-05-23T20:35:31.029Z,15.43
2023-05-23T20:37:58.563Z,11.25
2023-05-23T20:40:26.906Z,12.40
2023-05-23T20:42:53.588Z,12.18
2023-05-23T20:45:20.413Z,10.68
2023-05-23T20:47:47.474Z,13.35
2023-05-23T20:50:14.906Z,11.05
2023-05-23T20:52:43.398Z,15.45
2023-05-23T20:55:10.897Z,12.43
2023-05-23T20:57:37.666Z,13.25
2023-05-23T21:00:11.186Z,12.23
2023-05-23T21:02:38.692Z,13.55
2023-05-23T21:05:09.593Z,12.57
2023-05-23T21:10:03.354Z,13.88
2023-05-23T21:12:29.931Z,14.05
2023-05-23T21:14:59.428Z,12.18
2023-05-23T21:17:26.277Z,14.80
2023-05-23T21:19:53.131Z,14.32
2023-05-23T21:22:19.758Z,16.27
2023-05-23T21:24:47.194Z,13.30
2023-05-23T21:27:13.952Z,13.98
2023-05-23T21:29:40.695Z,14.70
2023-05-23T21:32:07.612Z,17.25
2023-05-23T21:34:34.415Z,13.95
2023-05-23T21:37:01.002Z,13.07
2023-05-23T21:39:39.217Z,14.57
2023-05-23T21:42:09.995Z,14.07
2023-05-23T21:44:38.289Z,13.93
2023-05-23T21:47:06.861Z,17.55
2023-05-23T21:49:35.332Z,14.35
2023-05-23T21:52:02.497Z,17.45
2023-05-23T21:54:29.050Z,13.13
2023-05-23T21:56:55.648Z,13.40
2023-05-23T21:59:22.454Z,18.77
2023-05-23T22:01:49.002Z,13.88
2023-05-23T22:04:19.066Z,13.05
2023-05-23T22:06:46.077Z,22.38
2023-05-23T22:09:14.450Z,16.90
2023-05-23T22:11:41.690Z,15.52
2023-05-23T22:14:08.605Z,14.93
2023-05-23T22:16:41.336Z,15.65
2023-05-23T22:19:09.886Z,15.68
2023-05-23T22:21:36.830Z,15.98
2023-05-23T22:24:03.706Z,14.18
2023-05-23T22:26:30.271Z,14.38
2023-05-23T22:28:56.877Z,17.30
2023-05-23T22:31:24.163Z,16.77
2023-05-23T22:33:51.180Z,15.55
2023-05-23T22:36:17.823Z,18.98
2023-05-23T22:38:44.536Z,22.88
2023-05-23T22:41:11.568Z,17.05
2023-05-23T22:43:38.249Z,21.88
2023-05-23T22:46:04.784Z,20.33
2023-05-23T22:48:33.720Z,20.60
2023-05-23T22:51:02.204Z,22.83
2023-05-23T22:53:29.381Z,22.50
2023-05-23T22:55:56.060Z,25.05
2023-05-23T22:58:22.560Z,19.58
2023-05-23T23:00:49.033Z,21.38
2023-05-23T23:03:16.063Z,20.50
2023-05-23T23:05:42.792Z,20.48
2023-05-23T23:08:09.354Z,18.75
2023-05-23T23:10:35.907Z,26.45
2023-05-23T23:13:02.347Z,22.27
2023-05-23T23:15:30.123Z,22.45
2023-05-23T23:17:56.640Z,23.10
2023-05-23T23:20:23.321Z,26.33
2023-05-23T23:22:49.793Z,25.55
2023-05-23T23:25:18.760Z,25.15
2023-05-23T23:27:45.253Z,25.05
2023-05-23T23:30:12.226Z,25.63
2023-05-23T23:32:38.726Z,21.35
2023-05-23T23:35:05.682Z,25.35
2023-05-23T23:37:32.099Z,23.30
2023-05-23T23:39:58.573Z,19.02
2023-05-23T23:42:25.005Z,23.33
2023-05-23T23:44:51.644Z,19.15
2023-05-23T23:47:18.051Z,20.05
2023-05-23T23:49:44.463Z,22.35
2023-05-23T23:52:10.931Z,23.52
2023-05-23T23:54:37.366Z,19.95
2023-05-23T23:57:04.053Z,23.92
2023-05-23T23:59:30.477Z,19.90
